Time,TemperatureF,DewpointF,PressureIn,WindDirection,WindDirectionDegrees,WindSpeedMPH,WindSpeedGustMPH,Humidity,HourlyPrecipIn,Conditions,Clouds,dailyrainin,SoftwareType,DateUTC
2013-02-07 00:12:00,47.1,44.0,30.08,East,82,5.0,9.0,89,0.00,,,0.00,weatherlink.com 1.10,2013-02-07 05:12:00,
2013-02-07 00:27:00,47.1,44.0,30.08,NE,54,4.0,8.0,89,0.00,,,0.00,weatherlink.com 1.10,2013-02-07 05:27:00,
2013-02-07 00:42:00,47.1,44.0,30.07,ENE,65,6.0,7.0,89,0.00,,,0.00,weatherlink.com 1.10,2013-02-07 05:42:00,
2013-02-07 00:57:00,47.1,44.0,30.09,NNE,32,2.0,5.0,89,0.00,,,0.00,weatherlink.com 1.10,2013-02-07 05:57:00,
2013-02-07 01:12:00,47.0,44.0,30.08,East,82,4.0,6.0,89,0.00,,,0.00,weatherlink.com 1.10,2013-02-07 06:12:00,
2013-02-07 01:27:00,47.2,44.0,30.08,ENE,63,5.0,8.0,89,0.00,,,0.00,weatherlink.com 1.10,2013-02-07 06:27:00,
2013-02-07 01:42:00,47.3,44.0,30.07,ENE,67,7.0,8.0,89,0.00,,,0.00,weatherlink.com 1.10,2013-02-07 06:42:00,
2013-02-07 01:57:00,47.6,45.0,30.06,East,82,5.0,9.0,89,0.00,,,0.00,weatherlink.com 1.10,2013-02-07 06:57:00,
2013-02-07 02:14:00,47.9,45.0,30.05,ENE,68,6.0,12.0,88,0.00,,,0.00,weatherlink.com 1.10,2013-02-07 07:14:00,
2013-02-07 02:27:00,48.0,45.0,30.05,ENE,63,12.0,12.0,88,0.00,,,0.00,weatherlink.com 1.10,2013-02-07 07:27:00,
2013-02-07 02:42:00,48.1,44.0,30.05,East,85,8.0,11.0,87,0.00,,,0.00,weatherlink.com 1.10,2013-02-07 07:42:00,
2013-02-07 02:57:00,48.1,44.0,30.05,East,93,7.0,12.0,87,0.00,,,0.00,weatherlink.com 1.10,2013-02-07 07:57:00,
2013-02-07 03:12:00,48.0,44.0,30.05,ENE,69,9.0,11.0,87,0.00,,,0.00,weatherlink.com 1.10,2013-02-07 08:12:00,
2013-02-07 03:28:00,48.0,44.0,30.06,ENE,73,6.0,11.0,86,0.00,,,0.00,weatherlink.com 1.10,2013-02-07 08:28:00,
2013-02-07 03:42:00,47.9,44.0,30.06,ENE,69,10.0,13.0,86,0.00,,,0.00,weatherlink.com 1.10,2013-02-07 08:42:00,
2013-02-07 03:57:00,47.3,44.0,30.06,ENE,65,5.0,9.0,87,0.00,,,0.00,weatherlink.com 1.10,2013-02-07 08:57:00,
2013-02-07 04:12:00,46.5,43.0,30.06,ENE,60,7.0,8.0,87,0.00,,,0.00,weatherlink.com 1.10,2013-02-07 09:12:00,
2013-02-07 04:28:00,46.2,43.0,30.07,ENE,64,6.0,7.0,88,0.00,,,0.00,weatherlink.com 1.10,2013-02-07 09:28:00,
2013-02-07 04:42:00,46.0,43.0,30.07,ENE,77,5.0,7.0,88,0.00,,,0.00,weatherlink.com 1.10,2013-02-07 09:42:00,
2013-02-07 04:57:00,-999.0,-99.9,30.07,North,-999,-999.0,-999.0,-999,0.00,,,0.00,weatherlink.com 1.10,2013-02-07 09:57:00,
2013-02-07 05:12:00,-999.0,-99.9,30.07,North,-999,-999.0,-999.0,-999,0.00,,,0.00,weatherlink.com 1.10,2013-02-07 10:12:00,
2013-02-07 05:28:00,-999.0,-99.9,30.07,North,-999,-999.0,-999.0,-999,0.00,,,0.00,weatherlink.com 1.10,2013-02-07 10:28:00,
2013-02-07 05:43:00,-999.0,-99.9,30.07,North,-999,-999.0,-999.0,-999,0.00,,,0.00,weatherlink.com 1.10,2013-02-07 10:43:00,
2013-02-07 05:58:00,-999.0,-99.9,30.07,North,-999,-999.0,-999.0,-999,0.00,,,0.00,weatherlink.com 1.10,2013-02-07 10:58:00,
2013-02-07 06:13:00,-999.0,-99.9,30.07,North,-999,-999.0,-999.0,-999,0.00,,,0.00,weatherlink.com 1.10,2013-02-07 11:13:00,
2013-02-07 06:28:00,-999.0,-99.9,30.07,North,-999,-999.0,-999.0,-999,0.00,,,0.00,weatherlink.com 1.10,2013-02-07 11:28:00,
2013-02-07 06:43:00,-999.0,-99.9,30.07,North,-999,-999.0,-999.0,-999,0.00,,,0.00,weatherlink.com 1.10,2013-02-07 11:43:00,
2013-02-07 06:58:00,-999.0,-99.9,30.07,North,-999,-999.0,-999.0,-999,0.00,,,0.00,weatherlink.com 1.10,2013-02-07 11:58:00,
2013-02-07 07:13:00,-999.0,-99.9,30.08,North,-999,-999.0,-999.0,-999,0.00,,,0.00,weatherlink.com 1.10,2013-02-07 12:13:00,
2013-02-07 07:29:00,-999.0,-99.9,30.08,North,-999,-999.0,-999.0,-999,0.00,,,0.00,weatherlink.com 1.10,2013-02-07 12:29:00,
2013-02-07 07:43:00,48.7,44.0,30.08,East,84,9.0,9.0,84,0.00,,,0.00,weatherlink.com 1.10,2013-02-07 12:43:00,
2013-02-07 07:59:00,49.1,44.0,30.08,ENE,63,9.0,12.0,83,0.00,,,0.00,weatherlink.com 1.10,2013-02-07 12:59:00,
2013-02-07 08:14:00,49.9,45.0,30.09,ENE,76,9.0,13.0,82,0.00,,,0.00,weatherlink.com 1.10,2013-02-07 13:14:00,
2013-02-07 08:29:00,50.5,45.0,30.09,ENE,62,9.0,17.0,81,0.00,,,0.00,weatherlink.com 1.10,2013-02-07 13:29:00,
2013-02-07 08:44:00,51.0,45.0,30.08,East,94,12.0,21.0,80,0.00,,,0.00,weatherlink.com 1.10,2013-02-07 13:44:00,
2013-02-07 08:59:00,51.4,45.0,30.08,East,101,7.0,18.0,80,0.00,,,0.00,weatherlink.com 1.10,2013-02-07 13:59:00,
2013-02-07 09:14:00,51.9,45.0,30.09,NE,43,15.0,18.0,78,0.00,,,0.00,weatherlink.com 1.10,2013-02-07 14:14:00,
2013-02-07 09:29:00,52.5,46.0,30.09,ENE,75,8.0,18.0,78,0.00,,,0.00,weatherlink.com 1.10,2013-02-07 14:29:00,
2013-02-07 09:44:00,52.9,46.0,30.09,ENE,77,11.0,21.0,77,0.00,,,0.00,weatherlink.com 1.10,2013-02-07 14:44:00,
2013-02-07 09:59:00,53.0,46.0,30.09,NE,54,12.0,22.0,77,0.00,,,0.00,weatherlink.com 1.10,2013-02-07 14:59:00,
2013-02-07 10:14:00,52.8,46.0,30.09,ENE,76,10.0,21.0,78,0.00,,,0.00,weatherlink.com 1.10,2013-02-07 15:14:00,
2013-02-07 10:29:00,53.1,46.0,30.09,ENE,73,12.0,20.0,77,0.00,,,0.00,weatherlink.com 1.10,2013-02-07 15:29:00,
2013-02-07 10:44:00,53.4,46.0,30.09,ENE,63,14.0,22.0,77,0.00,,,0.00,weatherlink.com 1.10,2013-02-07 15:44:00,
2013-02-07 10:59:00,54.1,47.0,30.09,East,90,13.0,20.0,77,0.00,,,0.00,weatherlink.com 1.10,2013-02-07 15:59:00,
2013-02-07 11:14:00,54.0,47.0,30.07,ENE,66,14.0,21.0,77,0.00,,,0.00,weatherlink.com 1.10,2013-02-07 16:14:00,
2013-02-07 11:29:00,53.8,47.0,30.07,ENE,78,19.0,21.0,78,0.00,,,0.00,weatherlink.com 1.10,2013-02-07 16:29:00,
2013-02-07 11:44:00,54.5,48.0,30.06,ENE,62,10.0,23.0,78,0.00,,,0.00,weatherlink.com 1.10,2013-02-07 16:44:00,
2013-02-07 11:59:00,55.1,48.0,30.05,ENE,74,16.0,20.0,77,0.00,,,0.00,weatherlink.com 1.10,2013-02-07 16:59:00,
2013-02-07 12:14:00,55.3,48.0,30.04,ENE,62,5.0,19.0,77,0.00,,,0.00,weatherlink.com 1.10,2013-02-07 17:14:00,
2013-02-07 12:29:00,55.3,48.0,30.02,ENE,71,13.0,19.0,77,0.00,,,0.00,weatherlink.com 1.10,2013-02-07 17:29:00,
2013-02-07 12:44:00,55.4,48.0,30.02,ENE,63,12.0,18.0,77,0.00,,,0.00,weatherlink.com 1.10,2013-02-07 17:44:00,
2013-02-07 12:59:00,55.1,48.0,30.01,East,85,17.0,21.0,78,0.00,,,0.00,weatherlink.com 1.10,2013-02-07 17:59:00,
2013-02-07 13:14:00,54.8,48.0,30.01,ENE,72,13.0,21.0,79,0.00,,,0.00,weatherlink.com 1.10,2013-02-07 18:14:00,
2013-02-07 13:29:00,54.8,48.0,30.00,ENE,62,11.0,18.0,79,0.00,,,0.00,weatherlink.com 1.10,2013-02-07 18:29:00,
2013-02-07 13:44:00,54.2,48.0,30.00,ENE,72,14.0,22.0,80,0.00,,,0.00,weatherlink.com 1.10,2013-02-07 18:44:00,
2013-02-07 13:59:00,53.7,48.0,30.00,ENE,73,14.0,22.0,81,0.00,,,0.00,weatherlink.com 1.10,2013-02-07 18:59:00,
2013-02-07 14:14:00,53.4,48.0,29.99,ENE,75,13.0,22.0,81,0.00,,,0.00,weatherlink.com 1.10,2013-02-07 19:14:00,
2013-02-07 14:29:00,53.7,49.0,29.97,East,84,20.0,22.0,83,0.00,,,0.00,weatherlink.com 1.10,2013-02-07 19:29:00,
2013-02-07 14:44:00,53.0,49.0,29.98,ENE,68,12.0,19.0,85,0.01,,,0.01,weatherlink.com 1.10,2013-02-07 19:44:00,
2013-02-07 14:59:00,52.2,49.0,29.98,ESE,121,7.0,24.0,88,0.03,,,0.03,weatherlink.com 1.10,2013-02-07 19:59:00,
2013-02-07 15:14:00,51.6,49.0,29.96,ENE,77,16.0,24.0,90,0.07,,,0.07,weatherlink.com 1.10,2013-02-07 20:14:00,
2013-02-07 15:29:00,51.5,49.0,29.96,ENE,70,14.0,18.0,91,0.09,,,0.09,weatherlink.com 1.10,2013-02-07 20:29:00,
2013-02-07 15:45:00,51.7,49.0,29.96,East,79,8.0,16.0,91,0.09,,,0.10,weatherlink.com 1.10,2013-02-07 20:45:00,
2013-02-07 15:59:00,51.5,49.0,29.96,ENE,78,13.0,18.0,91,0.07,,,0.11,weatherlink.com 1.10,2013-02-07 20:59:00,
2013-02-07 16:15:00,51.2,49.0,29.95,ENE,72,13.0,16.0,92,0.08,,,0.15,weatherlink.com 1.10,2013-02-07 21:15:00,
2013-02-07 16:30:00,51.0,49.0,29.95,East,80,6.0,20.0,93,0.09,,,0.18,weatherlink.com 1.10,2013-02-07 21:30:00,
2013-02-07 16:44:00,50.8,49.0,29.94,ENE,63,13.0,17.0,93,0.10,,,0.20,weatherlink.com 1.10,2013-02-07 21:44:00,
2013-02-07 16:59:00,50.8,49.0,29.93,ENE,64,13.0,19.0,94,0.09,,,0.20,weatherlink.com 1.10,2013-02-07 21:59:00,
2013-02-07 17:15:00,50.9,49.0,29.93,ENE,69,10.0,20.0,94,0.05,,,0.20,weatherlink.com 1.10,2013-02-07 22:15:00,
2013-02-07 17:29:00,50.9,49.0,29.93,ENE,78,14.0,17.0,94,0.02,,,0.20,weatherlink.com 1.10,2013-02-07 22:29:00,
2013-02-07 17:45:00,51.2,50.0,29.93,ENE,62,15.0,19.0,95,0.00,,,0.20,weatherlink.com 1.10,2013-02-07 22:45:00,
2013-02-07 17:59:00,51.5,50.0,29.93,NNE,30,14.0,18.0,94,0.00,,,0.20,weatherlink.com 1.10,2013-02-07 22:59:00,
2013-02-07 18:14:00,51.6,50.0,29.92,ENE,68,18.0,19.0,94,0.00,,,0.20,weatherlink.com 1.10,2013-02-07 23:14:00,
2013-02-07 18:30:00,51.5,50.0,29.91,ENE,71,11.0,22.0,95,0.00,,,0.20,weatherlink.com 1.10,2013-02-07 23:30:00,
2013-02-07 18:45:00,51.3,50.0,29.91,ESE,120,12.0,22.0,95,0.00,,,0.20,weatherlink.com 1.10,2013-02-07 23:45:00,
2013-02-07 19:02:00,51.2,50.0,29.90,East,82,14.0,19.0,95,0.00,,,0.20,weatherlink.com 1.10,2013-02-08 00:02:00,
2013-02-07 19:16:00,51.1,50.0,29.90,ENE,62,12.0,18.0,95,0.00,,,0.20,weatherlink.com 1.10,2013-02-08 00:16:00,
2013-02-07 19:31:00,51.1,50.0,29.89,ENE,73,16.0,19.0,95,0.00,,,0.20,weatherlink.com 1.10,2013-02-08 00:31:00,
2013-02-07 19:46:00,51.0,50.0,29.87,ESE,104,10.0,21.0,95,0.00,,,0.20,weatherlink.com 1.10,2013-02-08 00:46:00,
2013-02-07 20:01:00,51.0,50.0,29.87,ENE,73,10.0,19.0,95,0.00,,,0.20,weatherlink.com 1.10,2013-02-08 01:01:00,
2013-02-07 20:17:00,51.1,50.0,29.86,ENE,68,11.0,21.0,95,0.00,,,0.20,weatherlink.com 1.10,2013-02-08 01:17:00,
2013-02-07 20:31:00,50.9,50.0,29.85,ENE,73,13.0,20.0,95,0.01,,,0.21,weatherlink.com 1.10,2013-02-08 01:31:00,
2013-02-07 20:46:00,51.2,50.0,29.84,East,85,20.0,21.0,96,0.06,,,0.26,weatherlink.com 1.10,2013-02-08 01:46:00,
2013-02-07 21:17:00,51.3,50.0,29.82,East,81,12.0,19.0,96,0.09,,,0.29,weatherlink.com 1.10,2013-02-08 02:17:00,
2013-02-07 21:34:00,51.3,50.0,29.82,ESE,108,13.0,17.0,96,0.15,,,0.38,weatherlink.com 1.10,2013-02-08 02:34:00,
2013-02-07 21:48:00,51.4,50.0,29.80,NE,56,12.0,18.0,96,0.18,,,0.45,weatherlink.com 1.10,2013-02-08 02:48:00,
2013-02-07 22:03:00,51.5,50.0,29.80,ENE,73,18.0,21.0,96,0.24,,,0.52,weatherlink.com 1.10,2013-02-08 03:03:00,
2013-02-07 22:18:00,51.5,50.0,29.77,ENE,78,16.0,25.0,96,0.30,,,0.60,weatherlink.com 1.10,2013-02-08 03:18:00,
2013-02-07 22:34:00,51.9,51.0,29.77,ENE,73,13.0,24.0,96,0.26,,,0.64,weatherlink.com 1.10,2013-02-08 03:34:00,
2013-02-07 22:48:00,52.7,52.0,29.75,East,98,14.0,20.0,96,0.20,,,0.66,weatherlink.com 1.10,2013-02-08 03:48:00,
2013-02-07 23:04:00,52.8,52.0,29.74,ENE,72,16.0,26.0,96,0.21,,,0.74,weatherlink.com 1.10,2013-02-08 04:04:00,
2013-02-07 23:20:00,52.1,51.0,29.73,ENE,68,22.0,22.0,96,0.24,,,0.85,weatherlink.com 1.10,2013-02-08 04:20:00,
2013-02-07 23:35:00,52.1,51.0,29.71,East,91,16.0,27.0,97,0.32,,,0.96,weatherlink.com 1.10,2013-02-08 04:35:00,
2013-02-07 23:49:00,52.1,51.0,29.70,ESE,120,12.0,25.0,96,0.39,,,1.05,weatherlink.com 1.10,2013-02-08 04:49:00,